Kuujjuarapik Airport
CYGW : now visible

Airfield :











YOU CAN JOIN US ON...

 
LOGIN :

Register | Disclaimer

   EN    FR    IT 

 









Legend :    VFR   Marginal VFR   IFR   Intensive IFR   Very Intensive IFR
Visi :
Ceiling :
>= 8 km
>= 3000ft
5 to 8 km
1000 to 3000 ft
1500m to 5 km
500 to 1000 ft
800 to 1500m
200 to 500 ft
< 800m
< 200 ft
Symbols :   Thunderstorms  Fog  Heavy snow  Heavy precipitations  Wind > 20 kt






- Airport Elevation : 34 ft
- IATA code : YGW


CYGW - Kuujjuarapik

CURRENT METAR :
  • 072100Z AUTO 32006KT 270V350 9SM OVC006 M08/M10 A2996 RMK SLP147

EXPIRED METARs :
  • 072050Z AUTO 31004KT 290V350 9SM OVC006 M09/M10 A2996 RMK SLP147
  • 072035Z AUTO 32006KT 270V330 9SM -SN OVC006 M08/M10 A2996 RMK SLP148
  • 072000Z AUTO 30006KT 280V040 9SM OVC010 M08/M09 A2996 RMK SLP150
  • 071900Z AUTO 30005KT 9SM OVC010 M08/M09 A2998 RMK SLP155
  • 071841Z AUTO 33003KT 300V040 9SM OVC010 M09/M09 A2999 RMK SLP157
  • 071825Z AUTO 31006KT 250V330 9SM -SN OVC010 M08/M09 A2999 RMK SLP157

TAF TAF CYGW
Valid from the 07 at 18:00 until the 08 at 06:00 UTC


071738Z 0718/0806 29005KT P6SM BKN006
TEMPO 0718/0722 SCT006
FM072200 VRB03KT P6SM SCT006 RMK FCST BASED ON AUTO OBS. NXT FCST BY 080000Z



MET'MAP, your aeronautical weather chart ! - Copyright ORBIFLY December 2007 - Disclaimer

ORBIFLY MET'MAP TEAM :

Programming & Development : Alexandra Zaïnal
Concept & original design : Baudouin d'Aumeries
Assistance for programming : Marc-Olivier Méhu
Technical & hardware support : Manuel Goepfert

Contact : metmap@orbifly.com




SOURCES & CREDITS :

   NOAA       Earth
Advisory